createdAt,value
2019-06-08T00:03:50.200Z,97871.73
2019-06-08T00:08:54.207Z,97876.47
2019-06-08T00:13:58.293Z,97891.73
2019-06-08T00:19:02.303Z,97895.24
2019-06-08T00:24:06.330Z,97918.59
2019-06-08T00:29:10.342Z,97924.22
2019-06-08T00:34:14.695Z,97928.19
2019-06-08T00:39:18.965Z,97930.78
2019-06-08T00:44:23.369Z,97922.33
2019-06-08T00:49:27.460Z,97932.83
2019-06-08T00:54:31.726Z,97936.48
2019-06-08T00:59:35.665Z,97933.34
2019-06-08T01:04:39.592Z,97952.45
2019-06-08T01:09:43.619Z,97963.01
2019-06-08T01:14:47.748Z,97950.46
2019-06-08T01:19:51.701Z,97957.92
2019-06-08T01:24:55.737Z,97966.37
2019-06-08T01:29:59.748Z,97980.28
2019-06-08T01:35:04.062Z,97979.66
2019-06-08T01:40:08.583Z,97985.94
2019-06-08T01:45:16.218Z,97998.28
2019-06-08T01:50:20.082Z,97997.77
2019-06-08T01:55:25.128Z,97993.65
2019-06-08T02:00:35.253Z,97994.50
2019-06-08T02:05:35.689Z,97994.39
2019-06-08T02:10:39.994Z,97987.55
2019-06-08T02:15:44.146Z,97979.36
2019-06-08T02:20:48.209Z,97988.80
2019-06-08T02:25:52.285Z,97995.95
2019-06-08T02:30:56.515Z,97994.08
2019-06-08T02:36:00.518Z,97986.03
2019-06-08T02:41:04.678Z,98001.07
2019-06-08T02:46:08.733Z,98017.88
2019-06-08T02:51:13.750Z,98042.69
2019-06-08T02:56:20.444Z,98043.85
2019-06-08T03:01:24.528Z,98058.55
2019-06-08T03:06:32.240Z,98078.11
2019-06-08T03:11:38.918Z,98081.30
2019-06-08T03:16:43.373Z,98082.13
2019-06-08T03:21:47.492Z,98086.94
2019-06-08T03:26:51.973Z,98095.87
2019-06-08T03:31:57.399Z,98097.84
2019-06-08T03:37:02.165Z,98100.12
2019-06-08T03:42:06.244Z,98106.98
2019-06-08T03:47:10.545Z,98120.57
2019-06-08T03:52:14.553Z,98118.73
2019-06-08T03:57:18.576Z,98122.66
2019-06-08T04:02:22.548Z,98130.34
2019-06-08T04:07:26.792Z,98141.32
2019-06-08T04:12:30.796Z,98143.98
2019-06-08T04:17:34.813Z,98163.09
2019-06-08T04:22:46.505Z,98180.30
2019-06-08T04:27:51.138Z,98173.89
2019-06-08T04:32:55.150Z,98167.52
2019-06-08T04:37:59.396Z,98170.80
2019-06-08T04:43:03.634Z,98169.26
2019-06-08T04:48:09.613Z,98179.54
2019-06-08T04:53:13.229Z,98194.34
2019-06-08T04:58:17.189Z,98207.53
2019-06-08T05:03:21.211Z,98215.20
2019-06-08T05:08:25.461Z,98223.02
2019-06-08T05:13:29.405Z,98214.19
2019-06-08T05:18:33.416Z,98214.61
2019-06-08T05:23:37.541Z,98217.53
2019-06-08T05:28:41.559Z,98228.02
2019-06-08T05:33:47.487Z,98246.05
2019-06-08T05:38:51.481Z,98250.90
2019-06-08T05:43:55.654Z,98258.67
2019-06-08T05:49:00.000Z,98269.69
2019-06-08T05:54:04.026Z,98290.19
2019-06-08T05:59:08.020Z,98298.43
2019-06-08T06:04:12.038Z,98313.16
2019-06-08T06:09:16.059Z,98330.26
2019-06-08T06:14:20.023Z,98326.02
2019-06-08T06:19:24.006Z,98338.81
2019-06-08T06:24:28.049Z,98347.45
2019-06-08T06:29:32.164Z,98349.42
2019-06-08T06:34:36.298Z,98351.55
2019-06-08T06:39:40.229Z,98353.61
2019-06-08T06:44:45.733Z,98358.73
2019-06-08T06:49:50.631Z,98360.59
2019-06-08T06:54:55.014Z,98375.83
2019-06-08T06:59:59.173Z,98379.00
2019-06-08T07:05:03.307Z,98384.45
2019-06-08T07:10:08.891Z,98384.34
2019-06-08T07:15:16.070Z,98383.97
2019-06-08T07:20:20.077Z,98382.54
2019-06-08T07:25:24.156Z,98375.67
2019-06-08T07:30:28.164Z,98402.20
2019-06-08T07:35:32.691Z,98403.26
2019-06-08T07:40:36.689Z,98402.66
2019-06-08T07:45:40.945Z,98394.03
2019-06-08T07:50:44.954Z,98399.63
2019-06-08T07:55:50.068Z,98408.59
2019-06-08T08:00:59.454Z,98419.98
2019-06-08T08:06:00.332Z,98414.94
2019-06-08T08:11:04.414Z,98415.57
2019-06-08T08:16:08.362Z,98430.29
2019-06-08T08:21:22.153Z,98435.26
2019-06-08T08:26:19.004Z,98435.07
2019-06-08T08:31:23.206Z,98425.83
2019-06-08T08:36:29.421Z,98432.06
2019-06-08T08:41:32.930Z,98431.56
2019-06-08T08:46:38.745Z,98433.09
2019-06-08T08:51:43.103Z,98437.16
2019-06-08T08:56:50.497Z,98435.25
2019-06-08T09:01:52.972Z,98438.73
2019-06-08T09:06:58.815Z,98431.87
2019-06-08T09:12:08.093Z,98437.23
2019-06-08T09:17:11.891Z,98442.19
2019-06-08T09:22:18.627Z,98450.74
2019-06-08T09:27:21.690Z,98450.20
2019-06-08T09:32:28.083Z,98456.95
2019-06-08T09:37:31.501Z,98464.53
2019-06-08T09:42:35.954Z,98461.94
2019-06-08T09:47:40.288Z,98462.73
2019-06-08T09:52:44.381Z,98462.96
2019-06-08T09:57:48.771Z,98463.64
2019-06-08T10:02:54.655Z,98465.72
2019-06-08T10:08:00.853Z,98470.83
2019-06-08T10:13:09.209Z,98468.77
2019-06-08T10:18:10.938Z,98473.70
2019-06-08T10:23:29.922Z,98473.37
2019-06-08T10:28:21.717Z,98477.01
2019-06-08T10:33:28.114Z,98467.75
2019-06-08T10:38:31.711Z,98466.06
2019-06-08T10:43:38.302Z,98461.66
2019-06-08T10:48:41.832Z,98463.11
2019-06-08T10:53:51.908Z,98460.92
2019-06-08T10:58:51.756Z,98456.01
2019-06-08T11:03:58.076Z,98466.02
2019-06-08T11:09:05.284Z,98457.73
2019-06-08T11:14:12.215Z,98457.73
2019-06-08T11:19:14.062Z,98449.59
2019-06-08T11:24:24.499Z,98451.48
2019-06-08T11:29:24.182Z,98447.40
2019-06-08T11:34:28.772Z,98447.40
2019-06-08T11:39:32.997Z,98431.69
2019-06-08T11:44:39.057Z,98449.50
2019-06-08T11:49:42.797Z,98438.94
2019-06-08T11:54:48.106Z,98440.86
2019-06-08T11:59:53.790Z,98440.86
2019-06-08T12:04:57.842Z,98430.85
2019-06-08T12:10:02.981Z,98438.94
2019-06-08T12:15:11.186Z,98443.35
2019-06-08T12:20:17.410Z,98430.97
2019-06-08T12:25:18.991Z,98432.13
2019-06-08T12:30:26.129Z,98434.47
2019-06-08T12:35:28.731Z,98422.84
2019-06-08T12:40:32.798Z,98421.48
2019-06-08T12:45:38.097Z,98410.69
2019-06-08T12:50:42.121Z,98421.38
2019-06-08T12:55:47.558Z,98423.94
2019-06-08T13:00:51.731Z,98423.11
2019-06-08T13:05:57.550Z,98424.45
2019-06-08T13:11:01.411Z,98420.74
2019-06-08T13:16:05.397Z,98422.21
2019-06-08T13:21:24.530Z,98419.59
2019-06-08T13:26:20.165Z,98425.64
2019-06-08T13:31:22.603Z,98421.30
2019-06-08T13:36:29.569Z,98421.03
2019-06-08T13:41:32.897Z,98412.29
2019-06-08T13:46:37.890Z,98413.06
2019-06-08T13:51:41.974Z,98421.42
2019-06-08T13:56:47.914Z,98427.59
2019-06-08T14:01:52.441Z,98414.84
2019-06-08T14:06:58.116Z,98418.05
2019-06-08T14:12:02.363Z,98411.23
2019-06-08T14:17:08.350Z,98410.09
2019-06-08T14:22:12.112Z,98402.02
2019-06-08T14:27:17.128Z,98404.73
2019-06-08T14:32:22.317Z,98409.31
2019-06-08T14:37:28.960Z,98402.80
2019-06-08T14:42:32.508Z,98400.44
2019-06-08T14:47:37.676Z,98395.70
2019-06-08T14:52:41.880Z,98393.86
2019-06-08T14:57:48.027Z,98392.52
2019-06-08T15:02:51.607Z,98389.03
2019-06-08T15:07:58.118Z,98391.08
2019-06-08T15:13:01.585Z,98383.50
2019-06-08T15:18:08.406Z,98385.29
2019-06-08T15:23:11.587Z,98381.02
2019-06-08T15:28:15.586Z,98382.33
2019-06-08T15:33:21.570Z,98368.41
2019-06-08T15:38:25.463Z,98365.62
2019-06-08T15:43:34.474Z,98365.97
2019-06-08T15:48:38.160Z,98370.02
2019-06-08T15:53:42.289Z,98368.95
2019-06-08T15:58:48.678Z,98359.28
2019-06-08T16:03:52.527Z,98353.61
2019-06-08T16:08:56.637Z,98350.13
2019-06-08T16:14:00.819Z,98347.64
2019-06-08T16:19:04.968Z,98348.08
2019-06-08T16:24:08.982Z,98335.25
2019-06-08T16:29:12.934Z,98337.78
2019-06-08T16:34:16.939Z,98339.17
2019-06-08T16:39:20.877Z,98348.16
2019-06-08T16:44:24.808Z,98342.13
2019-06-08T16:49:29.166Z,98344.27
2019-06-08T16:54:33.179Z,98343.34
2019-06-08T16:59:38.576Z,98342.09
2019-06-08T17:04:42.670Z,98347.80
2019-06-08T17:09:46.692Z,98344.35
2019-06-08T17:14:50.711Z,98348.38
2019-06-08T17:19:55.000Z,98348.21
2019-06-08T17:24:58.955Z,98354.36
2019-06-08T17:30:08.351Z,98354.31
2019-06-08T17:35:09.191Z,98355.77
2019-06-08T17:40:13.419Z,98348.55
2019-06-08T17:45:18.198Z,98350.61
2019-06-08T17:50:24.088Z,98357.77
2019-06-08T17:55:28.087Z,98346.55
2019-06-08T18:00:33.205Z,98346.44
2019-06-08T18:05:41.953Z,98346.54
2019-06-08T18:10:44.431Z,98344.31
2019-06-08T18:15:48.834Z,98344.39
2019-06-08T18:20:52.975Z,98343.34
2019-06-08T18:25:58.177Z,98338.31
2019-06-08T18:31:02.479Z,98342.54
2019-06-08T18:36:07.661Z,98344.49
2019-06-08T18:41:11.679Z,98341.41
2019-06-08T18:46:17.836Z,98352.46
2019-06-08T18:51:21.740Z,98357.70
2019-06-08T18:56:27.566Z,98357.09
2019-06-08T19:01:31.950Z,98363.52
2019-06-08T19:06:38.739Z,98368.17
2019-06-08T19:11:43.557Z,98377.78
2019-06-08T19:16:54.286Z,98389.94
2019-06-08T19:21:53.247Z,98386.74
2019-06-08T19:26:57.884Z,98393.11
2019-06-08T19:32:02.169Z,98391.53
2019-06-08T19:37:07.939Z,98396.20
2019-06-08T19:42:11.969Z,98397.89
2019-06-08T19:47:17.656Z,98407.13
2019-06-08T19:52:22.195Z,98418.63
2019-06-08T19:57:28.152Z,98422.14
2019-06-08T20:02:32.054Z,98421.27
2019-06-08T20:07:37.912Z,98422.80
2019-06-08T20:12:43.209Z,98425.06
2019-06-08T20:17:48.943Z,98429.98
2019-06-08T20:22:54.972Z,98428.75
2019-06-08T20:27:59.181Z,98430.85
2019-06-08T20:33:03.359Z,98435.94
2019-06-08T20:38:08.239Z,98446.48
2019-06-08T20:43:12.465Z,98446.27
2019-06-08T20:48:18.284Z,98449.83
2019-06-08T20:53:23.886Z,98444.05
2019-06-08T20:58:28.524Z,98449.83
2019-06-08T21:03:32.558Z,98453.35
2019-06-08T21:08:37.217Z,98459.64
2019-06-08T21:13:41.684Z,98460.86
2019-06-08T21:18:46.842Z,98460.13
2019-06-08T21:23:54.186Z,98456.75
2019-06-08T21:29:00.132Z,98466.80
2019-06-08T21:34:02.166Z,98462.48
2019-06-08T21:39:08.320Z,98464.45
2019-06-08T21:44:12.455Z,98468.86
2019-06-08T21:49:18.241Z,98473.94
2019-06-08T21:54:22.247Z,98466.42
2019-06-08T21:59:26.717Z,98462.52
2019-06-08T22:04:31.138Z,98470.05
2019-06-08T22:09:37.284Z,98471.77
2019-06-08T22:14:40.962Z,98476.50
2019-06-08T22:19:47.354Z,98476.22
2019-06-08T22:24:51.862Z,98479.37
2019-06-08T22:29:58.205Z,98480.18
2019-06-08T22:35:03.290Z,98490.61
2019-06-08T22:40:08.441Z,98481.69
2019-06-08T22:45:12.741Z,98485.15
2019-06-08T22:50:18.523Z,98484.85
2019-06-08T22:55:22.558Z,98493.03
2019-06-08T23:00:27.998Z,98490.43
2019-06-08T23:05:32.807Z,98493.81
2019-06-08T23:10:37.415Z,98486.06
2019-06-08T23:15:41.577Z,98490.91
2019-06-08T23:20:47.760Z,98494.65
2019-06-08T23:25:51.249Z,98487.77
2019-06-08T23:31:05.797Z,98488.88
2019-06-08T23:36:34.242Z,98492.87
2019-06-08T23:41:09.924Z,98493.90
2019-06-08T23:46:12.439Z,98505.77
2019-06-08T23:51:18.074Z,98505.86
2019-06-08T23:56:22.318Z,98510.98
